Elissa — WDD9058 — position and weather

sailwx.info

Track history (hours):
 
Tides and Currents Weather Stations Pressure Air Temp Water Temp Dewpoint Dewpoint Depression Visibility Wind Speed Wind Dir Waves Ship Positions

Elissa

Owner: Ingram Barge Company, Nashville, TN. More information available from US FCC via Universal Licensing System and Coast Guard Vessel Documentation Center.

Last reported at 2014-Oct-21 13:14 UTC. Time now 2014-Oct-22 22:34 UTC.
Position N 29°57' W 090°23'.

Length 26 m; draft 3.6 m.

Type: Towing. MMSI: 367306290.

Date/timePositionNaut miles runAvg speedWind from/ knotsBaromVisibWave heightAir tempDewpointWater temp
2014-Oct-21 13:14N 29°57' W 090°23'7 7.5
2014-Oct-21 12:15N 29°58' W 090°15'4 4.9
2014-Oct-21 11:25N 29°57' W 090°10'0 0.1
2014-Oct-21 10:24N 29°57' W 090°10'8 6.0
2014-Oct-21 09:07N 29°56' W 090°19'11 4.1
2014-Oct-21 06:20N 30°03' W 090°29'6 7.4
2014-Oct-21 05:33N 30°03' W 090°36'12 5.6
2014-Oct-21 03:20N 30°02' W 090°50'30 2.2
2014-Oct-20 14:09N 30°23' W 091°13'32 1.2
2014-Oct-19 11:26N 29°59' W 090°49'2 2.2
2014-Oct-19 10:28N 30°01' W 090°47'11 3.3
2014-Oct-19 07:04N 30°03' W 090°34'2 0.1
2014-Oct-18 06:10N 30°03' W 090°31'15 4.8
2014-Oct-18 03:03N 29°60' W 090°48'33 1.5
2014-Oct-17 04:33N 30°26' W 091°12'28 1.8
2014-Oct-16 13:13N 30°04' W 090°52'0 0.0
2014-Oct-16 12:31N 30°04' W 090°52'0 0.0
2014-Oct-16 11:32N 30°04' W 090°52'2 2.4
2014-Oct-16 10:33N 30°02' W 090°50'3 3.0
2014-Oct-16 09:34N 29°59' W 090°49'3 3.3
2014-Oct-16 08:33N 30°01' W 090°46'3 3.0
2014-Oct-16 07:29N 30°01' W 090°42'3 3.1
2014-Oct-16 06:28N 30°03' W 090°39'3 3.0
2014-Oct-16 05:33N 30°03' W 090°36'23 1.4
2014-Oct-15 13:05N 29°57' W 090°10'0 0.0
2014-Oct-15 12:18N 29°57' W 090°10'0 0.0
2014-Oct-15 11:33N 29°57' W 090°10'2 2.1
2014-Oct-15 10:33N 29°56' W 090°12'6 6.2
2014-Oct-15 09:33N 29°57' W 090°19'6 6.2
2014-Oct-15 08:31N 29°60' W 090°25'0 0.1
2014-Oct-15 07:22N 29°60' W 090°25'5 4.3
2014-Oct-15 06:10N 30°03' W 090°30'5 6.5
2014-Oct-15 05:19N 30°03' W 090°36'5 5.6
2014-Oct-15 04:29N 30°02' W 090°41'6 6.7
2014-Oct-15 03:33N 29°60' W 090°48'5 5.0
2014-Oct-15 02:31N 30°04' W 090°52'12 0.3
2014-Oct-13 13:07N 30°02' W 090°38'2 4.1
2014-Oct-13 12:33N 30°03' W 090°35'2 2.3
2014-Oct-13 11:33N 30°03' W 090°33'2 1.8
2014-Oct-13 10:33N 30°03' W 090°31'5 4.9
2014-Oct-13 09:33N 29°60' W 090°26'1 1.2
2014-Oct-13 08:33N 29°59' W 090°25'0 0.2
2014-Oct-13 07:33N 29°59' W 090°25'6 5.8
2014-Oct-13 06:32N 29°57' W 090°19'2 0.5
2014-Oct-13 01:31N 29°58' W 090°17'5 4.7
2014-Oct-13 00:33N 29°56' W 090°22'5 4.6
2014-Oct-12 23:33N 29°60' W 090°25'4 3.8
2014-Oct-12 22:33N 30°02' W 090°28'3 2.8
2014-Oct-12 21:33N 30°03' W 090°32'4 4.4
2014-Oct-12 20:33N 30°02' W 090°37'13 4.1
2014-Oct-12 17:26N 30°04' W 090°51'0 0.0
2014-Oct-12 16:31N 30°04' W 090°51'1 1.2
2014-Oct-12 15:19N 30°04' W 090°53'  
Track history (hours):
 
Tides and Currents Weather Stations Pressure Air Temp Water Temp Dewpoint Dewpoint Depression Visibility Wind Speed Wind Dir Waves Ship Positions

Elissa

Owner: Ingram Barge Company, Nashville, TN. More information available from US FCC via Universal Licensing System and Coast Guard Vessel Documentation Center.

Last reported at 2014-Oct-21 13:14 UTC. Time now 2014-Oct-22 22:34 UTC.
Position N 29°57' W 090°23'.

Length 26 m; draft 3.6 m.

Type: Towing. MMSI: 367306290.

Date/timePositionNaut miles runAvg speedWind from/ knotsBaromVisibWave heightAir tempDewpointWater temp
2014-Oct-21 13:14N 29°57' W 090°23'7 7.5
2014-Oct-21 12:15N 29°58' W 090°15'4 4.9
2014-Oct-21 11:25N 29°57' W 090°10'0 0.1
2014-Oct-21 10:24N 29°57' W 090°10'8 6.0
2014-Oct-21 09:07N 29°56' W 090°19'11 4.1
2014-Oct-21 06:20N 30°03' W 090°29'6 7.4
2014-Oct-21 05:33N 30°03' W 090°36'12 5.6
2014-Oct-21 03:20N 30°02' W 090°50'30 2.2
2014-Oct-20 14:09N 30°23' W 091°13'32 1.2
2014-Oct-19 11:26N 29°59' W 090°49'2 2.2
2014-Oct-19 10:28N 30°01' W 090°47'11 3.3
2014-Oct-19 07:04N 30°03' W 090°34'2 0.1
2014-Oct-18 06:10N 30°03' W 090°31'15 4.8
2014-Oct-18 03:03N 29°60' W 090°48'33 1.5
2014-Oct-17 04:33N 30°26' W 091°12'28 1.8
2014-Oct-16 13:13N 30°04' W 090°52'0 0.0
2014-Oct-16 12:31N 30°04' W 090°52'0 0.0
2014-Oct-16 11:32N 30°04' W 090°52'2 2.4
2014-Oct-16 10:33N 30°02' W 090°50'3 3.0
2014-Oct-16 09:34N 29°59' W 090°49'3 3.3
2014-Oct-16 08:33N 30°01' W 090°46'3 3.0
2014-Oct-16 07:29N 30°01' W 090°42'3 3.1
2014-Oct-16 06:28N 30°03' W 090°39'3 3.0
2014-Oct-16 05:33N 30°03' W 090°36'23 1.4
2014-Oct-15 13:05N 29°57' W 090°10'0 0.0
2014-Oct-15 12:18N 29°57' W 090°10'0 0.0
2014-Oct-15 11:33N 29°57' W 090°10'2 2.1
2014-Oct-15 10:33N 29°56' W 090°12'6 6.2
2014-Oct-15 09:33N 29°57' W 090°19'6 6.2
2014-Oct-15 08:31N 29°60' W 090°25'0 0.1
2014-Oct-15 07:22N 29°60' W 090°25'5 4.3
2014-Oct-15 06:10N 30°03' W 090°30'5 6.5
2014-Oct-15 05:19N 30°03' W 090°36'5 5.6
2014-Oct-15 04:29N 30°02' W 090°41'6 6.7
2014-Oct-15 03:33N 29°60' W 090°48'5 5.0
2014-Oct-15 02:31N 30°04' W 090°52'12 0.3
2014-Oct-13 13:07N 30°02' W 090°38'2 4.1
2014-Oct-13 12:33N 30°03' W 090°35'2 2.3
2014-Oct-13 11:33N 30°03' W 090°33'2 1.8
2014-Oct-13 10:33N 30°03' W 090°31'5 4.9
2014-Oct-13 09:33N 29°60' W 090°26'1 1.2
2014-Oct-13 08:33N 29°59' W 090°25'0 0.2
2014-Oct-13 07:33N 29°59' W 090°25'6 5.8
2014-Oct-13 06:32N 29°57' W 090°19'2 0.5
2014-Oct-13 01:31N 29°58' W 090°17'5 4.7
2014-Oct-13 00:33N 29°56' W 090°22'5 4.6
2014-Oct-12 23:33N 29°60' W 090°25'4 3.8
2014-Oct-12 22:33N 30°02' W 090°28'3 2.8
2014-Oct-12 21:33N 30°03' W 090°32'4 4.4
2014-Oct-12 20:33N 30°02' W 090°37'13 4.1
2014-Oct-12 17:26N 30°04' W 090°51'0 0.0
2014-Oct-12 16:31N 30°04' W 090°51'1 1.2
2014-Oct-12 15:19N 30°04' W 090°53'  

Dump ship's entire track history